createdAt,value
2022-10-01T00:00:40.485Z,19.37
2022-10-01T00:04:40.860Z,24.4
2022-10-01T00:08:40.425Z,20.83
2022-10-01T00:12:40.597Z,21.77
2022-10-01T00:16:41.039Z,29.57
2022-10-01T00:20:40.514Z,21.83
2022-10-01T00:24:41.235Z,19.63
2022-10-01T00:28:40.663Z,19.9
2022-10-01T00:32:40.323Z,23.3
2022-10-01T00:36:40.983Z,23.13
2022-10-01T00:40:40.640Z,19.87
2022-10-01T00:44:40.463Z,19.63
2022-10-01T00:48:40.490Z,19
2022-10-01T00:52:40.506Z,22.23
2022-10-01T00:56:40.537Z,20.75
2022-10-01T01:00:40.633Z,17.97
2022-10-01T01:04:40.590Z,21.87
2022-10-01T01:08:40.614Z,24.12
2022-10-01T01:12:40.529Z,21.3
2022-10-01T01:16:40.430Z,20.1
2022-10-01T01:20:40.482Z,16.6
2022-10-01T01:24:40.467Z,18.7
2022-10-01T01:28:40.439Z,21.43
2022-10-01T01:32:40.513Z,17.43
2022-10-01T01:36:40.389Z,23.2
2022-10-01T01:40:40.680Z,22.83
2022-10-01T01:44:40.461Z,18.8
2022-10-01T01:48:40.649Z,16.8
2022-10-01T01:52:40.617Z,19.83
2022-10-01T01:56:40.608Z,19
2022-10-01T02:00:40.455Z,19.73
2022-10-01T02:04:40.655Z,21.77
2022-10-01T02:08:40.505Z,26.6
2022-10-01T02:12:40.669Z,30.07
2022-10-01T02:16:39.618Z,24.53
2022-10-01T02:20:40.664Z,20.93
2022-10-01T02:24:40.680Z,20
2022-10-01T02:28:40.527Z,25.3
2022-10-01T02:32:40.601Z,22.3
2022-10-01T02:36:40.537Z,23.53
2022-10-01T02:40:41.256Z,30.9
2022-10-01T02:44:40.632Z,27.17
2022-10-01T02:48:40.470Z,21.6
2022-10-01T02:52:40.498Z,21.8
2022-10-01T02:56:48.321Z,18.73
2022-10-01T03:00:41.149Z,24.03
2022-10-01T03:04:41.044Z,23.5
2022-10-01T03:08:40.463Z,23.77
2022-10-01T03:12:40.436Z,20.6
2022-10-01T03:16:40.566Z,20.17
2022-10-01T03:20:40.419Z,25.03
2022-10-01T03:24:40.494Z,25.47
2022-10-01T03:28:40.966Z,15.93
2022-10-01T03:32:40.236Z,22.1
2022-10-01T03:36:40.841Z,20.4
2022-10-01T03:40:39.794Z,30.8
2022-10-01T03:44:40.696Z,26.87
2022-10-01T03:48:40.518Z,24.43
2022-10-01T03:52:40.441Z,23.23
2022-10-01T03:56:40.290Z,20.6
2022-10-01T04:00:40.733Z,23.33
2022-10-01T04:04:40.653Z,25.4
2022-10-01T04:08:40.681Z,28.9
2022-10-01T04:12:40.548Z,27.13
2022-10-01T04:16:40.364Z,27.67
2022-10-01T04:20:41.171Z,24.63
2022-10-01T04:24:40.783Z,23.6
2022-10-01T04:28:40.478Z,26.47
2022-10-01T04:32:40.547Z,25.37
2022-10-01T04:36:40.513Z,26.43
2022-10-01T04:40:40.382Z,27.63
2022-10-01T04:44:40.684Z,31.63
2022-10-01T04:48:40.808Z,31.27
2022-10-01T04:52:40.489Z,29.43
2022-10-01T04:56:40.528Z,29.75
2022-10-01T05:00:40.746Z,28.7
2022-10-01T05:04:40.533Z,30.6
2022-10-01T05:08:40.539Z,31.87
2022-10-01T05:12:40.693Z,30.65
2022-10-01T05:16:40.675Z,29.33
2022-10-01T05:20:40.568Z,31.67
2022-10-01T05:24:40.547Z,29.33
2022-10-01T05:28:40.617Z,39.08
2022-10-01T05:32:40.567Z,26.25
2022-10-01T05:36:40.293Z,24.5
2022-10-01T05:40:40.469Z,17.25
2022-10-01T05:44:40.480Z,13.85
2022-10-01T05:48:40.754Z,12.65
2022-10-01T05:52:40.601Z,14.35
2022-10-01T05:56:40.463Z,11.43
2022-10-01T06:00:40.517Z,13.05
2022-10-01T06:04:41.390Z,11.88
2022-10-01T06:08:40.608Z,13.07
2022-10-01T06:12:40.527Z,13.65
2022-10-01T06:16:40.645Z,12.52
2022-10-01T06:20:40.507Z,11.85
2022-10-01T06:24:41.217Z,16.52
2022-10-01T06:28:40.784Z,16.65
2022-10-01T06:32:39.807Z,14.77
2022-10-01T06:36:40.940Z,10.32
2022-10-01T06:40:40.333Z,11.27
2022-10-01T06:44:40.428Z,8.85
2022-10-01T06:48:40.689Z,11.02
2022-10-01T06:52:40.498Z,10.95
2022-10-01T06:56:40.860Z,9.18
2022-10-01T07:00:40.603Z,10.18
2022-10-01T07:04:40.434Z,8.2
2022-10-01T07:08:40.623Z,11.32
2022-10-01T07:12:40.739Z,8.13
2022-10-01T07:16:40.990Z,8.8
2022-10-01T07:20:40.546Z,8.4
2022-10-01T07:24:39.753Z,9.88
2022-10-01T07:28:40.704Z,8.82
2022-10-01T07:32:40.499Z,6.4
2022-10-01T07:36:40.552Z,8.57
2022-10-01T07:40:40.629Z,9.82
2022-10-01T07:44:39.711Z,6.07
2022-10-01T07:48:41.310Z,6.9
2022-10-01T07:52:41.093Z,7.15
2022-10-01T07:56:40.405Z,11.02
2022-10-01T08:00:40.574Z,9.68
2022-10-01T08:04:40.666Z,8.65
2022-10-01T08:08:40.051Z,13.35
2022-10-01T08:12:41.061Z,11.7
2022-10-01T08:16:40.595Z,8.1
2022-10-01T08:20:40.553Z,9.5
2022-10-01T08:24:40.389Z,6.7
2022-10-01T08:28:40.491Z,6.4
2022-10-01T08:32:40.570Z,7.8
2022-10-01T08:36:40.860Z,10.7
2022-10-01T08:40:39.809Z,7.72
2022-10-01T08:44:40.889Z,5.7
2022-10-01T08:48:40.558Z,7.68
2022-10-01T08:52:40.930Z,5.47
2022-10-01T08:56:41.212Z,7.85
2022-10-01T09:00:40.984Z,8.1
2022-10-01T09:04:40.061Z,10.98
2022-10-01T09:08:40.556Z,5.3
2022-10-01T09:12:40.277Z,15.07
2022-10-01T09:16:40.961Z,7.72
2022-10-01T09:20:40.432Z,8.68
2022-10-01T09:24:40.103Z,9.13
2022-10-01T09:28:40.347Z,4.35
2022-10-01T09:32:40.580Z,5
2022-10-01T09:36:40.416Z,8.25
2022-10-01T09:40:40.476Z,6.62
2022-10-01T09:44:39.851Z,3.85
2022-10-01T09:48:41.108Z,4.22
2022-10-01T09:52:40.518Z,6.1
2022-10-01T09:56:40.209Z,4.35
2022-10-01T10:00:41.354Z,4.07
2022-10-01T10:04:40.547Z,3.6
2022-10-01T10:08:40.609Z,7.25
2022-10-01T10:12:40.007Z,3.7
2022-10-01T10:16:40.769Z,5.1
2022-10-01T10:20:40.619Z,4.68
2022-10-01T10:24:40.610Z,6.68
2022-10-01T10:28:43.894Z,6.15
2022-10-01T10:32:40.956Z,4.1
2022-10-01T10:36:40.539Z,4.28
2022-10-01T10:40:40.727Z,2.8
2022-10-01T10:44:40.574Z,3.62
2022-10-01T10:48:40.275Z,6.37
2022-10-01T10:52:44.988Z,6.03
2022-10-01T10:56:40.952Z,8.48
2022-10-01T11:00:40.834Z,6.28
2022-10-01T11:04:40.532Z,4.85
2022-10-01T11:08:40.797Z,5.93
2022-10-01T11:12:40.418Z,4.15
2022-10-01T11:16:41.232Z,5.43
2022-10-01T11:20:43.642Z,5.35
2022-10-01T11:24:48.710Z,4.53
2022-10-01T11:28:50.854Z,7.35
2022-10-01T11:32:54.363Z,6.43
2022-10-01T11:36:41.108Z,7.55
2022-10-01T11:40:41.076Z,7.8
2022-10-01T11:44:40.681Z,9.05
2022-10-01T11:48:40.247Z,8
2022-10-01T11:52:40.489Z,10.48
2022-10-01T11:56:41.014Z,13.73
2022-10-01T12:00:40.868Z,13.3
2022-10-01T12:04:40.447Z,14.05
2022-10-01T12:08:40.513Z,12.32
2022-10-01T12:12:40.540Z,13.27
2022-10-01T12:16:40.702Z,10.9
2022-10-01T12:20:39.542Z,11.07
2022-10-01T12:24:40.566Z,14.3
2022-10-01T12:28:40.404Z,13.62
2022-10-01T12:32:40.585Z,11.88
2022-10-01T12:36:40.347Z,11.02
2022-10-01T12:40:41.072Z,12.93
2022-10-01T12:44:40.662Z,10.9
2022-10-01T12:48:40.461Z,9.73
2022-10-01T12:52:40.478Z,12.95
2022-10-01T12:56:40.044Z,11.52
2022-10-01T13:00:41.201Z,13.07
2022-10-01T13:04:40.931Z,9.73
2022-10-01T13:08:40.547Z,14.73
2022-10-01T13:12:40.439Z,10.82
2022-10-01T13:16:40.667Z,8.07
2022-10-01T13:20:39.301Z,10.65
2022-10-01T13:24:40.360Z,8.27
2022-10-01T13:28:40.755Z,8.9
2022-10-01T13:32:40.680Z,7.2
2022-10-01T13:36:40.653Z,10.43
2022-10-01T13:40:40.474Z,6.07
2022-10-01T13:44:40.601Z,11.02
2022-10-01T13:48:40.508Z,6.2
2022-10-01T13:52:40.454Z,6.82
2022-10-01T13:56:40.611Z,7.78
2022-10-01T14:00:40.592Z,3
2022-10-01T14:04:40.358Z,4.25
2022-10-01T14:08:40.458Z,3.25
2022-10-01T14:12:40.529Z,3.42
2022-10-01T14:16:40.575Z,2.33
2022-10-01T14:20:43.683Z,2.97
2022-10-01T14:24:40.336Z,1.73
2022-10-01T14:28:41.211Z,1.85
2022-10-01T14:32:40.604Z,1.9
2022-10-01T14:36:40.518Z,3.42
2022-10-01T14:40:39.859Z,4.57
2022-10-01T14:44:41.233Z,1.1
2022-10-01T14:48:40.413Z,3.22
2022-10-01T14:52:41.202Z,1.05
2022-10-01T14:56:40.352Z,5.07
2022-10-01T15:00:39.828Z,3.9
2022-10-01T15:04:40.751Z,4.47
2022-10-01T15:08:40.652Z,1.5
2022-10-01T15:12:40.460Z,2.08
2022-10-01T15:16:41.069Z,0.95
2022-10-01T15:20:40.722Z,2.2
2022-10-01T15:24:40.397Z,3.5
2022-10-01T15:28:40.873Z,3.12
2022-10-01T15:32:40.965Z,1.25
2022-10-01T15:36:40.565Z,4.35
2022-10-01T15:40:40.517Z,2.1
2022-10-01T15:44:41.023Z,1.9
2022-10-01T15:48:40.549Z,3.83
2022-10-01T15:52:40.579Z,1.83
2022-10-01T15:56:40.342Z,1.37
2022-10-01T16:00:39.829Z,2.1
2022-10-01T16:04:40.864Z,3.65
2022-10-01T16:08:40.531Z,2.78
2022-10-01T16:12:40.485Z,1.92
2022-10-01T16:16:40.320Z,2.42
2022-10-01T16:20:39.922Z,1.45
2022-10-01T16:24:40.833Z,1.4
2022-10-01T16:28:40.097Z,3.5
2022-10-01T16:32:40.641Z,2.55
2022-10-01T16:36:40.602Z,1.8
2022-10-01T16:40:40.597Z,1.3
2022-10-01T16:44:40.840Z,3.4
2022-10-01T16:48:40.542Z,2.08
2022-10-01T16:52:40.501Z,2.3
2022-10-01T16:56:40.449Z,4.68
2022-10-01T17:00:40.679Z,3.03
2022-10-01T17:04:40.797Z,3.85
2022-10-01T17:08:40.553Z,2.45
2022-10-01T17:12:40.746Z,1.7
2022-10-01T17:16:40.953Z,2.3
2022-10-01T17:20:40.550Z,7.8
2022-10-01T17:24:40.480Z,2.47
2022-10-01T17:28:39.658Z,5.1
2022-10-01T17:32:40.658Z,1.95
2022-10-01T17:36:40.479Z,3.97
2022-10-01T17:40:41.250Z,1.65
2022-10-01T17:44:40.496Z,3.35
2022-10-01T17:48:40.515Z,1.92
2022-10-01T17:52:40.531Z,3.05
2022-10-01T17:56:40.493Z,2.45
2022-10-01T18:00:40.715Z,1.77
2022-10-01T18:04:40.675Z,5.2
2022-10-01T18:08:54.599Z,2
2022-10-01T18:12:40.849Z,3.1
2022-10-01T18:16:41.127Z,8.3
2022-10-01T18:20:40.726Z,2.37
2022-10-01T18:24:40.439Z,5.47
2022-10-01T18:28:40.812Z,7.78
2022-10-01T18:32:40.565Z,2.45
2022-10-01T18:36:40.586Z,1.5
2022-10-01T18:40:40.544Z,1.45
2022-10-01T18:44:40.570Z,0.98
2022-10-01T18:48:40.519Z,2.58
2022-10-01T18:52:40.169Z,1.73
2022-10-01T18:56:40.281Z,1.9
2022-10-01T19:00:40.823Z,2.1
2022-10-01T19:04:40.573Z,1.6
2022-10-01T19:08:40.505Z,1.55
2022-10-01T19:12:40.470Z,4.68
2022-10-01T19:16:41.187Z,1.55
2022-10-01T19:20:45.139Z,1.3
2022-10-01T19:24:40.477Z,2.17
2022-10-01T19:28:40.820Z,0.4
2022-10-01T19:32:40.613Z,0.93
2022-10-01T19:36:40.978Z,0.77
2022-10-01T19:40:40.514Z,2.95
2022-10-01T19:44:40.463Z,3.97
2022-10-01T19:48:40.986Z,1.58
2022-10-01T19:52:40.535Z,1.62
2022-10-01T19:56:40.459Z,1.05
2022-10-01T20:00:40.592Z,0.8
2022-10-01T20:04:40.592Z,6.65
2022-10-01T20:08:40.481Z,6.55
2022-10-01T20:12:40.463Z,2.37
2022-10-01T20:16:40.648Z,4.37
2022-10-01T20:20:41.156Z,1.08
2022-10-01T20:24:40.562Z,1.3
2022-10-01T20:28:40.551Z,3.37
2022-10-01T20:32:40.646Z,3.5
2022-10-01T20:36:41.097Z,0.85
2022-10-01T20:40:40.507Z,1.67
2022-10-01T20:44:40.891Z,2.25
2022-10-01T20:48:40.581Z,1.75
2022-10-01T20:52:40.522Z,1.73
2022-10-01T20:56:40.420Z,2.05
2022-10-01T21:00:40.521Z,2.05
2022-10-01T21:04:40.510Z,1.8
2022-10-01T21:08:40.539Z,2.92
2022-10-01T21:12:40.466Z,2.45
2022-10-01T21:16:41.109Z,2.58
2022-10-01T21:20:40.525Z,1.62
2022-10-01T21:24:40.894Z,2.37
2022-10-01T21:28:40.483Z,2.1
2022-10-01T21:32:40.640Z,5.68
2022-10-01T21:36:40.558Z,3.5
2022-10-01T21:40:40.634Z,4.55
2022-10-01T21:44:40.451Z,3.5
2022-10-01T21:48:40.476Z,3.1
2022-10-01T21:52:40.503Z,4.05
2022-10-01T21:56:40.432Z,3.42
2022-10-01T22:04:40.727Z,2
2022-10-01T22:08:40.324Z,6.65
2022-10-01T22:12:40.516Z,2.92
2022-10-01T22:16:40.788Z,2.95
2022-10-01T22:20:41.232Z,2.47
2022-10-01T22:24:40.554Z,4.8
2022-10-01T22:28:40.516Z,3.75
2022-10-01T22:32:40.524Z,3.97
2022-10-01T22:36:40.527Z,2.35
2022-10-01T22:40:40.514Z,7.12
2022-10-01T22:44:40.619Z,3.15
2022-10-01T22:48:40.853Z,4.32
2022-10-01T22:52:41.179Z,8.52
2022-10-01T22:56:40.901Z,3.17
2022-10-01T23:00:40.665Z,3.75
2022-10-01T23:04:40.501Z,3.22
2022-10-01T23:08:40.490Z,8.3
2022-10-01T23:12:40.520Z,5.2
2022-10-01T23:16:40.887Z,9.05
2022-10-01T23:20:40.529Z,7.8
2022-10-01T23:24:40.471Z,2.65
2022-10-01T23:28:40.495Z,4.8
2022-10-01T23:32:40.916Z,7.6
2022-10-01T23:36:40.486Z,3.65
2022-10-01T23:40:40.541Z,3.58
2022-10-01T23:44:40.493Z,9.05
2022-10-01T23:48:40.605Z,5.5
2022-10-01T23:52:40.908Z,10.25
2022-10-01T23:56:41.256Z,7.18
